sensor_id;sensor_type;location;lat;lon;timestamp;P1;durP1;ratioP1;P2;durP2;ratioP2
58123;SDS011;46725;48.068;20.832;2022-10-23T00:01:22;77.32;;;33.45;;
58123;SDS011;46725;48.068;20.832;2022-10-23T00:03:50;68.00;;;35.22;;
58123;SDS011;46725;48.068;20.832;2022-10-23T00:06:17;79.15;;;34.78;;
58123;SDS011;46725;48.068;20.832;2022-10-23T00:08:45;70.35;;;35.72;;
58123;SDS011;46725;48.068;20.832;2022-10-23T00:11:12;82.30;;;34.85;;
58123;SDS011;46725;48.068;20.832;2022-10-23T00:13:38;60.13;;;32.58;;
58123;SDS011;46725;48.068;20.832;2022-10-23T00:16:05;71.63;;;33.38;;
58123;SDS011;46725;48.068;20.832;2022-10-23T00:18:31;60.08;;;32.28;;
58123;SDS011;46725;48.068;20.832;2022-10-23T00:20:57;57.30;;;31.13;;
58123;SDS011;46725;48.068;20.832;2022-10-23T00:23:23;58.78;;;32.47;;
58123;SDS011;46725;48.068;20.832;2022-10-23T00:25:49;61.55;;;33.15;;
58123;SDS011;46725;48.068;20.832;2022-10-23T00:28:16;62.00;;;33.92;;
58123;SDS011;46725;48.068;20.832;2022-10-23T00:30:42;60.83;;;32.53;;
58123;SDS011;46725;48.068;20.832;2022-10-23T00:33:08;63.72;;;32.95;;
58123;SDS011;46725;48.068;20.832;2022-10-23T00:35:37;68.60;;;33.60;;
58123;SDS011;46725;48.068;20.832;2022-10-23T00:38:03;62.17;;;32.55;;
58123;SDS011;46725;48.068;20.832;2022-10-23T00:40:29;79.68;;;32.17;;
58123;SDS011;46725;48.068;20.832;2022-10-23T00:42:55;79.97;;;32.92;;
58123;SDS011;46725;48.068;20.832;2022-10-23T00:45:29;79.93;;;34.60;;
58123;SDS011;46725;48.068;20.832;2022-10-23T00:47:57;74.40;;;35.50;;
58123;SDS011;46725;48.068;20.832;2022-10-23T00:50:24;70.10;;;35.45;;
58123;SDS011;46725;48.068;20.832;2022-10-23T00:52:51;84.07;;;37.20;;
58123;SDS011;46725;48.068;20.832;2022-10-23T00:55:18;67.07;;;34.80;;
58123;SDS011;46725;48.068;20.832;2022-10-23T00:57:45;68.38;;;34.42;;
58123;SDS011;46725;48.068;20.832;2022-10-23T01:00:23;62.10;;;32.83;;
58123;SDS011;46725;48.068;20.832;2022-10-23T01:02:49;79.95;;;35.33;;
58123;SDS011;46725;48.068;20.832;2022-10-23T01:05:15;70.80;;;34.53;;
58123;SDS011;46725;48.068;20.832;2022-10-23T01:07:49;66.43;;;34.88;;
58123;SDS011;46725;48.068;20.832;2022-10-23T01:18:09;88.53;;;36.45;;
58123;SDS011;46725;48.068;20.832;2022-10-23T01:23:05;86.95;;;31.75;;
58123;SDS011;46725;48.068;20.832;2022-10-23T01:28:23;56.28;;;29.70;;
58123;SDS011;46725;48.068;20.832;2022-10-23T01:30:50;75.00;;;30.95;;
58123;SDS011;46725;48.068;20.832;2022-10-23T01:33:21;62.65;;;29.73;;
58123;SDS011;46725;48.068;20.832;2022-10-23T01:35:52;52.78;;;27.33;;
58123;SDS011;46725;48.068;20.832;2022-10-23T01:43:19;55.80;;;29.00;;
58123;SDS011;46725;48.068;20.832;2022-10-23T01:45:54;79.55;;;29.00;;
58123;SDS011;46725;48.068;20.832;2022-10-23T01:48:22;62.78;;;29.08;;
58123;SDS011;46725;48.068;20.832;2022-10-23T01:50:49;79.65;;;28.75;;
58123;SDS011;46725;48.068;20.832;2022-10-23T01:53:16;49.22;;;26.50;;
58123;SDS011;46725;48.068;20.832;2022-10-23T01:55:42;48.55;;;25.20;;
58123;SDS011;46725;48.068;20.832;2022-10-23T01:58:09;51.72;;;24.55;;
58123;SDS011;46725;48.068;20.832;2022-10-23T02:00:35;54.05;;;23.20;;
58123;SDS011;46725;48.068;20.832;2022-10-23T02:03:04;44.90;;;23.77;;
58123;SDS011;46725;48.068;20.832;2022-10-23T02:05:31;49.08;;;23.27;;
58123;SDS011;46725;48.068;20.832;2022-10-23T02:07:57;43.67;;;22.98;;
58123;SDS011;46725;48.068;20.832;2022-10-23T02:10:27;62.83;;;23.73;;
58123;SDS011;46725;48.068;20.832;2022-10-23T02:18:07;39.75;;;22.95;;
58123;SDS011;46725;48.068;20.832;2022-10-23T02:20:39;41.83;;;24.02;;
58123;SDS011;46725;48.068;20.832;2022-10-23T02:25:47;47.28;;;23.55;;
58123;SDS011;46725;48.068;20.832;2022-10-23T02:28:14;38.25;;;21.33;;
58123;SDS011;46725;48.068;20.832;2022-10-23T02:30:41;36.17;;;20.50;;
58123;SDS011;46725;48.068;20.832;2022-10-23T02:33:10;36.17;;;21.80;;
58123;SDS011;46725;48.068;20.832;2022-10-23T02:35:36;40.08;;;24.40;;
58123;SDS011;46725;48.068;20.832;2022-10-23T02:38:02;37.97;;;22.75;;
58123;SDS011;46725;48.068;20.832;2022-10-23T02:40:32;43.92;;;24.63;;
58123;SDS011;46725;48.068;20.832;2022-10-23T02:43:01;38.45;;;22.92;;
58123;SDS011;46725;48.068;20.832;2022-10-23T02:45:29;44.38;;;20.27;;
58123;SDS011;46725;48.068;20.832;2022-10-23T02:48:09;63.67;;;22.33;;
58123;SDS011;46725;48.068;20.832;2022-10-23T02:50:40;48.67;;;20.98;;
58123;SDS011;46725;48.068;20.832;2022-10-23T02:55:57;34.35;;;20.30;;
58123;SDS011;46725;48.068;20.832;2022-10-23T03:00:53;33.70;;;21.00;;
58123;SDS011;46725;48.068;20.832;2022-10-23T03:03:25;37.63;;;22.83;;
58123;SDS011;46725;48.068;20.832;2022-10-23T03:05:52;37.37;;;22.07;;
58123;SDS011;46725;48.068;20.832;2022-10-23T03:08:18;36.08;;;21.45;;
58123;SDS011;46725;48.068;20.832;2022-10-23T03:10:44;40.83;;;23.98;;
58123;SDS011;46725;48.068;20.832;2022-10-23T03:13:10;36.67;;;22.02;;
58123;SDS011;46725;48.068;20.832;2022-10-23T03:15:36;31.98;;;20.40;;
58123;SDS011;46725;48.068;20.832;2022-10-23T03:18:02;32.15;;;19.17;;
58123;SDS011;46725;48.068;20.832;2022-10-23T03:20:29;29.23;;;19.02;;
58123;SDS011;46725;48.068;20.832;2022-10-23T03:22:55;30.60;;;20.38;;
58123;SDS011;46725;48.068;20.832;2022-10-23T03:25:21;32.10;;;19.85;;
58123;SDS011;46725;48.068;20.832;2022-10-23T03:27:47;34.83;;;20.70;;
58123;SDS011;46725;48.068;20.832;2022-10-23T03:30:13;35.33;;;20.90;;
58123;SDS011;46725;48.068;20.832;2022-10-23T03:32:39;33.80;;;21.27;;
58123;SDS011;46725;48.068;20.832;2022-10-23T03:35:05;36.47;;;22.75;;
58123;SDS011;46725;48.068;20.832;2022-10-23T03:37:31;44.00;;;24.77;;
58123;SDS011;46725;48.068;20.832;2022-10-23T03:39:57;39.17;;;23.95;;
58123;SDS011;46725;48.068;20.832;2022-10-23T03:42:23;35.65;;;21.75;;
58123;SDS011;46725;48.068;20.832;2022-10-23T03:44:49;40.78;;;23.98;;
58123;SDS011;46725;48.068;20.832;2022-10-23T03:47:15;40.40;;;24.35;;
58123;SDS011;46725;48.068;20.832;2022-10-23T03:49:42;36.83;;;22.60;;
58123;SDS011;46725;48.068;20.832;2022-10-23T03:52:08;41.42;;;23.95;;
58123;SDS011;46725;48.068;20.832;2022-10-23T03:54:34;41.80;;;25.08;;
58123;SDS011;46725;48.068;20.832;2022-10-23T03:57:00;44.83;;;25.17;;
58123;SDS011;46725;48.068;20.832;2022-10-23T03:59:26;39.42;;;24.50;;
58123;SDS011;46725;48.068;20.832;2022-10-23T04:01:53;37.67;;;23.58;;
58123;SDS011;46725;48.068;20.832;2022-10-23T04:04:19;39.28;;;24.33;;
58123;SDS011;46725;48.068;20.832;2022-10-23T04:06:45;37.17;;;21.58;;
58123;SDS011;46725;48.068;20.832;2022-10-23T04:09:11;38.92;;;23.20;;
58123;SDS011;46725;48.068;20.832;2022-10-23T04:11:37;37.55;;;23.13;;
58123;SDS011;46725;48.068;20.832;2022-10-23T04:14:03;38.22;;;22.52;;
58123;SDS011;46725;48.068;20.832;2022-10-23T04:16:29;33.95;;;21.25;;
58123;SDS011;46725;48.068;20.832;2022-10-23T04:18:55;39.58;;;22.95;;
58123;SDS011;46725;48.068;20.832;2022-10-23T04:21:21;38.70;;;21.20;;
58123;SDS011;46725;48.068;20.832;2022-10-23T04:23:47;37.35;;;21.70;;
58123;SDS011;46725;48.068;20.832;2022-10-23T04:26:13;33.22;;;20.27;;
58123;SDS011;46725;48.068;20.832;2022-10-23T04:28:39;27.08;;;18.15;;
58123;SDS011;46725;48.068;20.832;2022-10-23T04:31:06;38.67;;;21.02;;
58123;SDS011;46725;48.068;20.832;2022-10-23T04:33:32;31.52;;;19.08;;
58123;SDS011;46725;48.068;20.832;2022-10-23T04:35:58;30.30;;;18.17;;
58123;SDS011;46725;48.068;20.832;2022-10-23T04:38:24;58.88;;;18.42;;
58123;SDS011;46725;48.068;20.832;2022-10-23T04:40:50;33.25;;;19.25;;
58123;SDS011;46725;48.068;20.832;2022-10-23T04:43:16;28.83;;;19.08;;
58123;SDS011;46725;48.068;20.832;2022-10-23T04:45:42;30.45;;;18.73;;
58123;SDS011;46725;48.068;20.832;2022-10-23T04:48:08;32.72;;;19.17;;
58123;SDS011;46725;48.068;20.832;2022-10-23T04:50:34;34.30;;;18.63;;
58123;SDS011;46725;48.068;20.832;2022-10-23T04:53:00;28.48;;;16.38;;
58123;SDS011;46725;48.068;20.832;2022-10-23T04:55:26;24.63;;;15.75;;
58123;SDS011;46725;48.068;20.832;2022-10-23T04:57:52;30.13;;;18.52;;
58123;SDS011;46725;48.068;20.832;2022-10-23T05:00:18;28.60;;;17.65;;
58123;SDS011;46725;48.068;20.832;2022-10-23T05:02:44;30.25;;;18.58;;
58123;SDS011;46725;48.068;20.832;2022-10-23T05:05:10;30.65;;;17.08;;
58123;SDS011;46725;48.068;20.832;2022-10-23T05:07:37;28.48;;;16.98;;
58123;SDS011;46725;48.068;20.832;2022-10-23T05:10:03;33.05;;;19.13;;
58123;SDS011;46725;48.068;20.832;2022-10-23T05:12:30;29.33;;;18.02;;
58123;SDS011;46725;48.068;20.832;2022-10-23T05:14:56;34.85;;;19.88;;
58123;SDS011;46725;48.068;20.832;2022-10-23T05:17:23;33.67;;;20.85;;
58123;SDS011;46725;48.068;20.832;2022-10-23T05:19:52;34.28;;;19.88;;
58123;SDS011;46725;48.068;20.832;2022-10-23T05:22:19;37.35;;;21.10;;
58123;SDS011;46725;48.068;20.832;2022-10-23T05:24:45;63.85;;;22.30;;
58123;SDS011;46725;48.068;20.832;2022-10-23T05:27:11;38.03;;;20.98;;
58123;SDS011;46725;48.068;20.832;2022-10-23T05:29:37;64.22;;;26.38;;
58123;SDS011;46725;48.068;20.832;2022-10-23T05:32:04;45.03;;;25.00;;
58123;SDS011;46725;48.068;20.832;2022-10-23T05:34:30;81.53;;;28.88;;
58123;SDS011;46725;48.068;20.832;2022-10-23T05:36:58;51.60;;;29.75;;
58123;SDS011;46725;48.068;20.832;2022-10-23T05:39:24;55.03;;;32.33;;
58123;SDS011;46725;48.068;20.832;2022-10-23T05:41:51;59.13;;;24.60;;
58123;SDS011;46725;48.068;20.832;2022-10-23T05:44:18;36.60;;;21.70;;
58123;SDS011;46725;48.068;20.832;2022-10-23T05:46:45;35.05;;;21.45;;
58123;SDS011;46725;48.068;20.832;2022-10-23T05:49:11;39.83;;;23.20;;
58123;SDS011;46725;48.068;20.832;2022-10-23T05:51:37;35.45;;;21.48;;
58123;SDS011;46725;48.068;20.832;2022-10-23T05:54:04;36.60;;;21.50;;
58123;SDS011;46725;48.068;20.832;2022-10-23T05:56:33;37.35;;;22.38;;
58123;SDS011;46725;48.068;20.832;2022-10-23T05:58:59;38.90;;;21.70;;
58123;SDS011;46725;48.068;20.832;2022-10-23T06:01:25;33.92;;;21.55;;
58123;SDS011;46725;48.068;20.832;2022-10-23T06:03:51;34.88;;;22.60;;
58123;SDS011;46725;48.068;20.832;2022-10-23T06:06:17;34.88;;;22.35;;
58123;SDS011;46725;48.068;20.832;2022-10-23T06:08:43;37.72;;;24.33;;
58123;SDS011;46725;48.068;20.832;2022-10-23T06:11:10;37.60;;;21.27;;
58123;SDS011;46725;48.068;20.832;2022-10-23T06:13:37;44.17;;;24.02;;
58123;SDS011;46725;48.068;20.832;2022-10-23T06:16:07;37.70;;;22.65;;
58123;SDS011;46725;48.068;20.832;2022-10-23T06:18:33;38.65;;;22.38;;
58123;SDS011;46725;48.068;20.832;2022-10-23T06:21:00;53.40;;;27.15;;
58123;SDS011;46725;48.068;20.832;2022-10-23T06:23:26;74.50;;;32.13;;
58123;SDS011;46725;48.068;20.832;2022-10-23T06:25:52;62.50;;;23.65;;
58123;SDS011;46725;48.068;20.832;2022-10-23T06:28:19;44.75;;;21.88;;
58123;SDS011;46725;48.068;20.832;2022-10-23T06:30:45;35.38;;;20.63;;
58123;SDS011;46725;48.068;20.832;2022-10-23T06:33:11;33.88;;;19.92;;
58123;SDS011;46725;48.068;20.832;2022-10-23T06:35:37;36.72;;;20.30;;
58123;SDS011;46725;48.068;20.832;2022-10-23T06:38:03;35.83;;;18.83;;
58123;SDS011;46725;48.068;20.832;2022-10-23T06:40:30;31.63;;;19.10;;
58123;SDS011;46725;48.068;20.832;2022-10-23T06:42:56;44.70;;;20.27;;
58123;SDS011;46725;48.068;20.832;2022-10-23T06:45:22;55.05;;;27.13;;
58123;SDS011;46725;48.068;20.832;2022-10-23T06:47:51;49.25;;;22.17;;
58123;SDS011;46725;48.068;20.832;2022-10-23T06:50:17;45.03;;;20.38;;
58123;SDS011;46725;48.068;20.832;2022-10-23T06:52:43;36.90;;;20.45;;
58123;SDS011;46725;48.068;20.832;2022-10-23T06:55:09;41.47;;;21.60;;
58123;SDS011;46725;48.068;20.832;2022-10-23T06:57:35;37.60;;;20.00;;
58123;SDS011;46725;48.068;20.832;2022-10-23T07:00:02;40.22;;;21.55;;
58123;SDS011;46725;48.068;20.832;2022-10-23T07:02:28;51.95;;;20.75;;
58123;SDS011;46725;48.068;20.832;2022-10-23T07:04:54;40.35;;;21.75;;
58123;SDS011;46725;48.068;20.832;2022-10-23T07:07:20;60.88;;;27.75;;
58123;SDS011;46725;48.068;20.832;2022-10-23T07:09:47;45.38;;;24.27;;
58123;SDS011;46725;48.068;20.832;2022-10-23T07:12:13;47.03;;;20.08;;
58123;SDS011;46725;48.068;20.832;2022-10-23T07:14:39;46.35;;;19.58;;
58123;SDS011;46725;48.068;20.832;2022-10-23T07:17:05;53.70;;;21.33;;
58123;SDS011;46725;48.068;20.832;2022-10-23T07:19:31;45.78;;;21.63;;
58123;SDS011;46725;48.068;20.832;2022-10-23T07:21:57;51.60;;;21.52;;
58123;SDS011;46725;48.068;20.832;2022-10-23T07:24:23;50.15;;;21.58;;
58123;SDS011;46725;48.068;20.832;2022-10-23T07:26:49;55.10;;;20.92;;
58123;SDS011;46725;48.068;20.832;2022-10-23T07:29:16;42.60;;;20.60;;
58123;SDS011;46725;48.068;20.832;2022-10-23T07:31:42;61.05;;;22.30;;
58123;SDS011;46725;48.068;20.832;2022-10-23T07:34:08;49.70;;;21.42;;
58123;SDS011;46725;48.068;20.832;2022-10-23T07:36:34;48.17;;;24.17;;
58123;SDS011;46725;48.068;20.832;2022-10-23T07:39:00;50.13;;;24.38;;
58123;SDS011;46725;48.068;20.832;2022-10-23T07:41:26;45.33;;;21.65;;
58123;SDS011;46725;48.068;20.832;2022-10-23T07:43:53;72.85;;;22.95;;
58123;SDS011;46725;48.068;20.832;2022-10-23T07:46:19;55.10;;;23.42;;
58123;SDS011;46725;48.068;20.832;2022-10-23T07:48:45;58.45;;;22.15;;
58123;SDS011;46725;48.068;20.832;2022-10-23T07:51:12;55.70;;;22.80;;
58123;SDS011;46725;48.068;20.832;2022-10-23T07:53:38;46.75;;;21.27;;
58123;SDS011;46725;48.068;20.832;2022-10-23T07:56:15;50.67;;;22.08;;
58123;SDS011;46725;48.068;20.832;2022-10-23T07:58:42;66.18;;;22.77;;
58123;SDS011;46725;48.068;20.832;2022-10-23T08:01:18;66.65;;;19.92;;
58123;SDS011;46725;48.068;20.832;2022-10-23T08:03:45;93.00;;;20.40;;
58123;SDS011;46725;48.068;20.832;2022-10-23T08:06:11;53.10;;;21.42;;
58123;SDS011;46725;48.068;20.832;2022-10-23T08:08:37;53.55;;;19.98;;
58123;SDS011;46725;48.068;20.832;2022-10-23T08:11:03;51.03;;;21.77;;
58123;SDS011;46725;48.068;20.832;2022-10-23T08:13:29;48.38;;;24.48;;
58123;SDS011;46725;48.068;20.832;2022-10-23T08:15:55;56.03;;;21.17;;
58123;SDS011;46725;48.068;20.832;2022-10-23T08:18:22;54.83;;;23.75;;
58123;SDS011;46725;48.068;20.832;2022-10-23T08:20:49;46.03;;;22.55;;
58123;SDS011;46725;48.068;20.832;2022-10-23T08:23:17;53.80;;;23.40;;
58123;SDS011;46725;48.068;20.832;2022-10-23T08:25:43;50.78;;;22.20;;
58123;SDS011;46725;48.068;20.832;2022-10-23T08:28:09;64.22;;;22.65;;
58123;SDS011;46725;48.068;20.832;2022-10-23T08:30:35;45.05;;;22.63;;
58123;SDS011;46725;48.068;20.832;2022-10-23T08:33:02;68.45;;;23.65;;
58123;SDS011;46725;48.068;20.832;2022-10-23T08:35:29;48.10;;;24.42;;
58123;SDS011;46725;48.068;20.832;2022-10-23T08:37:55;49.70;;;24.38;;
58123;SDS011;46725;48.068;20.832;2022-10-23T08:40:21;41.65;;;23.45;;
58123;SDS011;46725;48.068;20.832;2022-10-23T08:42:52;50.22;;;25.88;;
58123;SDS011;46725;48.068;20.832;2022-10-23T08:47:51;43.42;;;23.08;;
58123;SDS011;46725;48.068;20.832;2022-10-23T08:50:27;43.63;;;24.00;;
58123;SDS011;46725;48.068;20.832;2022-10-23T08:53:12;46.58;;;26.00;;
58123;SDS011;46725;48.068;20.832;2022-10-23T08:55:44;50.00;;;25.98;;
58123;SDS011;46725;48.068;20.832;2022-10-23T08:58:14;46.45;;;24.52;;
58123;SDS011;46725;48.068;20.832;2022-10-23T09:00:42;43.67;;;23.45;;
58123;SDS011;46725;48.068;20.832;2022-10-23T09:03:08;40.40;;;22.35;;
58123;SDS011;46725;48.068;20.832;2022-10-23T09:15:56;44.72;;;26.48;;
58123;SDS011;46725;48.068;20.832;2022-10-23T09:18:24;45.47;;;26.30;;
58123;SDS011;46725;48.068;20.832;2022-10-23T09:20:50;45.03;;;18.88;;
58123;SDS011;46725;48.068;20.832;2022-10-23T09:23:18;36.15;;;20.63;;
58123;SDS011;46725;48.068;20.832;2022-10-23T09:25:46;51.78;;;24.67;;
58123;SDS011;46725;48.068;20.832;2022-10-23T09:28:19;55.30;;;21.10;;
58123;SDS011;46725;48.068;20.832;2022-10-23T09:30:46;73.45;;;25.13;;
58123;SDS011;46725;48.068;20.832;2022-10-23T09:33:17;126.72;;;29.52;;
58123;SDS011;46725;48.068;20.832;2022-10-23T09:36:03;158.30;;;29.50;;
58123;SDS011;46725;48.068;20.832;2022-10-23T09:38:31;79.32;;;22.08;;
58123;SDS011;46725;48.068;20.832;2022-10-23T09:41:09;59.33;;;22.80;;
58123;SDS011;46725;48.068;20.832;2022-10-23T09:43:37;46.13;;;22.42;;
58123;SDS011;46725;48.068;20.832;2022-10-23T09:46:04;54.90;;;24.77;;
58123;SDS011;46725;48.068;20.832;2022-10-23T09:48:32;71.63;;;25.58;;
58123;SDS011;46725;48.068;20.832;2022-10-23T09:50:59;72.43;;;27.15;;
58123;SDS011;46725;48.068;20.832;2022-10-23T09:55:52;62.55;;;24.60;;
58123;SDS011;46725;48.068;20.832;2022-10-23T09:58:20;66.07;;;23.55;;
58123;SDS011;46725;48.068;20.832;2022-10-23T10:00:48;54.17;;;24.00;;
58123;SDS011;46725;48.068;20.832;2022-10-23T10:03:19;59.83;;;25.77;;
58123;SDS011;46725;48.068;20.832;2022-10-23T10:05:52;65.88;;;26.33;;
58123;SDS011;46725;48.068;20.832;2022-10-23T10:10:59;46.55;;;24.38;;
58123;SDS011;46725;48.068;20.832;2022-10-23T10:18:32;65.15;;;25.98;;
58123;SDS011;46725;48.068;20.832;2022-10-23T10:21:07;52.05;;;26.40;;
58123;SDS011;46725;48.068;20.832;2022-10-23T10:28:56;103.10;;;29.70;;
58123;SDS011;46725;48.068;20.832;2022-10-23T10:31:25;95.75;;;29.58;;
58123;SDS011;46725;48.068;20.832;2022-10-23T10:39:07;81.63;;;30.55;;
58123;SDS011;46725;48.068;20.832;2022-10-23T10:46:45;62.38;;;28.73;;
58123;SDS011;46725;48.068;20.832;2022-10-23T10:49:17;63.85;;;28.45;;
58123;SDS011;46725;48.068;20.832;2022-10-23T10:51:55;51.20;;;29.70;;
58123;SDS011;46725;48.068;20.832;2022-10-23T10:56:50;57.05;;;30.67;;
58123;SDS011;46725;48.068;20.832;2022-10-23T10:59:21;55.17;;;31.20;;
58123;SDS011;46725;48.068;20.832;2022-10-23T11:01:50;47.60;;;30.00;;
58123;SDS011;46725;48.068;20.832;2022-10-23T11:04:29;42.67;;;27.63;;
58123;SDS011;46725;48.068;20.832;2022-10-23T11:06:56;44.30;;;26.83;;
58123;SDS011;46725;48.068;20.832;2022-10-23T11:09:25;44.95;;;26.25;;
58123;SDS011;46725;48.068;20.832;2022-10-23T11:11:52;42.67;;;26.35;;
58123;SDS011;46725;48.068;20.832;2022-10-23T11:14:20;41.35;;;26.02;;
58123;SDS011;46725;48.068;20.832;2022-10-23T11:16:48;43.47;;;26.95;;
58123;SDS011;46725;48.068;20.832;2022-10-23T11:21:42;43.13;;;27.20;;
58123;SDS011;46725;48.068;20.832;2022-10-23T11:29:23;45.78;;;27.08;;
58123;SDS011;46725;48.068;20.832;2022-10-23T11:32:04;43.53;;;27.20;;
58123;SDS011;46725;48.068;20.832;2022-10-23T11:34:52;44.17;;;29.52;;
58123;SDS011;46725;48.068;20.832;2022-10-23T11:37:22;45.55;;;28.60;;
58123;SDS011;46725;48.068;20.832;2022-10-23T11:42:54;48.50;;;29.92;;
58123;SDS011;46725;48.068;20.832;2022-10-23T11:47:58;47.33;;;30.42;;
58123;SDS011;46725;48.068;20.832;2022-10-23T11:50:26;48.72;;;29.33;;
58123;SDS011;46725;48.068;20.832;2022-10-23T11:55:25;45.33;;;27.42;;
58123;SDS011;46725;48.068;20.832;2022-10-23T12:00:34;61.90;;;41.22;;
58123;SDS011;46725;48.068;20.832;2022-10-23T12:03:03;50.17;;;34.22;;
58123;SDS011;46725;48.068;20.832;2022-10-23T12:05:30;50.70;;;34.28;;
58123;SDS011;46725;48.068;20.832;2022-10-23T12:08:03;44.45;;;29.33;;
58123;SDS011;46725;48.068;20.832;2022-10-23T12:10:33;46.78;;;30.60;;
58123;SDS011;46725;48.068;20.832;2022-10-23T12:13:02;43.70;;;28.67;;
58123;SDS011;46725;48.068;20.832;2022-10-23T12:15:30;45.38;;;29.67;;
58123;SDS011;46725;48.068;20.832;2022-10-23T12:18:15;46.40;;;30.73;;
58123;SDS011;46725;48.068;20.832;2022-10-23T12:31:03;39.22;;;24.83;;
58123;SDS011;46725;48.068;20.832;2022-10-23T12:38:47;36.65;;;24.73;;
58123;SDS011;46725;48.068;20.832;2022-10-23T12:41:24;37.33;;;24.05;;
58123;SDS011;46725;48.068;20.832;2022-10-23T12:43:52;35.47;;;24.35;;
58123;SDS011;46725;48.068;20.832;2022-10-23T12:48:49;35.92;;;23.65;;
58123;SDS011;46725;48.068;20.832;2022-10-23T12:51:26;35.55;;;24.02;;
58123;SDS011;46725;48.068;20.832;2022-10-23T12:53:52;37.85;;;25.48;;
58123;SDS011;46725;48.068;20.832;2022-10-23T12:56:18;35.83;;;24.55;;
58123;SDS011;46725;48.068;20.832;2022-10-23T12:58:48;37.65;;;24.17;;
58123;SDS011;46725;48.068;20.832;2022-10-23T13:01:25;34.63;;;23.33;;
58123;SDS011;46725;48.068;20.832;2022-10-23T13:03:55;32.85;;;23.30;;
58123;SDS011;46725;48.068;20.832;2022-10-23T13:06:23;37.40;;;24.63;;
58123;SDS011;46725;48.068;20.832;2022-10-23T13:08:49;37.35;;;23.70;;
58123;SDS011;46725;48.068;20.832;2022-10-23T13:11:16;34.72;;;24.23;;
58123;SDS011;46725;48.068;20.832;2022-10-23T13:13:43;37.33;;;25.63;;
58123;SDS011;46725;48.068;20.832;2022-10-23T13:16:16;35.20;;;24.45;;
58123;SDS011;46725;48.068;20.832;2022-10-23T13:18:43;38.70;;;26.38;;
58123;SDS011;46725;48.068;20.832;2022-10-23T13:21:17;35.60;;;25.02;;
58123;SDS011;46725;48.068;20.832;2022-10-23T13:23:44;36.28;;;24.00;;
58123;SDS011;46725;48.068;20.832;2022-10-23T13:28:49;30.08;;;20.60;;
58123;SDS011;46725;48.068;20.832;2022-10-23T13:31:23;33.33;;;21.75;;
58123;SDS011;46725;48.068;20.832;2022-10-23T13:34:01;31.05;;;21.80;;
58123;SDS011;46725;48.068;20.832;2022-10-23T13:36:29;35.28;;;22.92;;
58123;SDS011;46725;48.068;20.832;2022-10-23T13:41:33;31.75;;;22.70;;
58123;SDS011;46725;48.068;20.832;2022-10-23T13:44:00;36.25;;;23.15;;
58123;SDS011;46725;48.068;20.832;2022-10-23T13:46:26;34.78;;;24.30;;
58123;SDS011;46725;48.068;20.832;2022-10-23T13:48:53;33.17;;;24.30;;
58123;SDS011;46725;48.068;20.832;2022-10-23T13:51:23;33.05;;;23.55;;
58123;SDS011;46725;48.068;20.832;2022-10-23T13:53:50;30.55;;;22.48;;
58123;SDS011;46725;48.068;20.832;2022-10-23T13:56:17;38.78;;;24.60;;
58123;SDS011;46725;48.068;20.832;2022-10-23T13:58:44;36.72;;;24.63;;
58123;SDS011;46725;48.068;20.832;2022-10-23T14:01:21;38.05;;;25.60;;
58123;SDS011;46725;48.068;20.832;2022-10-23T14:03:48;38.47;;;24.73;;
58123;SDS011;46725;48.068;20.832;2022-10-23T14:06:14;35.20;;;24.85;;
58123;SDS011;46725;48.068;20.832;2022-10-23T14:08:40;39.63;;;24.67;;
58123;SDS011;46725;48.068;20.832;2022-10-23T14:11:06;38.63;;;24.85;;
58123;SDS011;46725;48.068;20.832;2022-10-23T14:13:32;37.28;;;24.40;;
58123;SDS011;46725;48.068;20.832;2022-10-23T14:15:58;33.78;;;24.15;;
58123;SDS011;46725;48.068;20.832;2022-10-23T14:18:24;38.83;;;25.10;;
58123;SDS011;46725;48.068;20.832;2022-10-23T14:20:50;42.38;;;26.40;;
58123;SDS011;46725;48.068;20.832;2022-10-23T14:23:16;37.58;;;25.30;;
58123;SDS011;46725;48.068;20.832;2022-10-23T14:25:42;36.55;;;23.88;;
58123;SDS011;46725;48.068;20.832;2022-10-23T14:28:08;35.55;;;22.35;;
58123;SDS011;46725;48.068;20.832;2022-10-23T14:30:35;38.92;;;23.80;;
58123;SDS011;46725;48.068;20.832;2022-10-23T14:33:01;37.72;;;22.70;;
58123;SDS011;46725;48.068;20.832;2022-10-23T14:35:27;38.83;;;23.40;;
58123;SDS011;46725;48.068;20.832;2022-10-23T14:37:53;37.13;;;22.88;;
58123;SDS011;46725;48.068;20.832;2022-10-23T14:40:21;37.13;;;23.42;;
58123;SDS011;46725;48.068;20.832;2022-10-23T14:42:47;36.42;;;23.60;;
58123;SDS011;46725;48.068;20.832;2022-10-23T14:45:13;34.58;;;22.35;;
58123;SDS011;46725;48.068;20.832;2022-10-23T14:47:39;35.85;;;23.05;;
58123;SDS011;46725;48.068;20.832;2022-10-23T14:50:06;37.58;;;22.75;;
58123;SDS011;46725;48.068;20.832;2022-10-23T14:52:33;37.05;;;23.20;;
58123;SDS011;46725;48.068;20.832;2022-10-23T14:54:59;36.00;;;23.55;;
58123;SDS011;46725;48.068;20.832;2022-10-23T14:57:25;35.33;;;23.05;;
58123;SDS011;46725;48.068;20.832;2022-10-23T14:59:52;35.75;;;24.00;;
58123;SDS011;46725;48.068;20.832;2022-10-23T15:02:18;33.13;;;21.58;;
58123;SDS011;46725;48.068;20.832;2022-10-23T15:04:44;35.42;;;21.67;;
58123;SDS011;46725;48.068;20.832;2022-10-23T15:07:10;34.03;;;21.85;;
58123;SDS011;46725;48.068;20.832;2022-10-23T15:09:36;36.60;;;23.85;;
58123;SDS011;46725;48.068;20.832;2022-10-23T15:12:03;52.78;;;30.33;;
58123;SDS011;46725;48.068;20.832;2022-10-23T15:14:30;96.05;;;54.42;;
58123;SDS011;46725;48.068;20.832;2022-10-23T15:16:56;58.55;;;35.35;;
58123;SDS011;46725;48.068;20.832;2022-10-23T15:19:22;42.13;;;26.85;;
58123;SDS011;46725;48.068;20.832;2022-10-23T15:21:48;36.40;;;23.00;;
58123;SDS011;46725;48.068;20.832;2022-10-23T15:24:16;42.40;;;25.00;;
58123;SDS011;46725;48.068;20.832;2022-10-23T15:26:42;34.60;;;23.35;;
58123;SDS011;46725;48.068;20.832;2022-10-23T15:29:09;39.00;;;24.08;;
58123;SDS011;46725;48.068;20.832;2022-10-23T15:34:01;34.25;;;22.27;;
58123;SDS011;46725;48.068;20.832;2022-10-23T15:36:28;35.10;;;22.25;;
58123;SDS011;46725;48.068;20.832;2022-10-23T15:38:54;35.60;;;21.85;;
58123;SDS011;46725;48.068;20.832;2022-10-23T15:41:22;35.03;;;21.13;;
58123;SDS011;46725;48.068;20.832;2022-10-23T15:43:51;38.13;;;22.38;;
58123;SDS011;46725;48.068;20.832;2022-10-23T15:46:18;37.05;;;21.98;;
58123;SDS011;46725;48.068;20.832;2022-10-23T15:48:44;35.63;;;23.02;;
58123;SDS011;46725;48.068;20.832;2022-10-23T15:51:10;37.40;;;22.92;;
58123;SDS011;46725;48.068;20.832;2022-10-23T15:53:36;35.58;;;22.58;;
58123;SDS011;46725;48.068;20.832;2022-10-23T15:56:02;37.65;;;23.90;;
58123;SDS011;46725;48.068;20.832;2022-10-23T15:58:28;36.63;;;23.40;;
58123;SDS011;46725;48.068;20.832;2022-10-23T16:00:54;38.33;;;23.35;;
58123;SDS011;46725;48.068;20.832;2022-10-23T16:03:20;44.10;;;25.23;;
58123;SDS011;46725;48.068;20.832;2022-10-23T16:05:46;41.53;;;26.23;;
58123;SDS011;46725;48.068;20.832;2022-10-23T16:08:12;45.30;;;27.90;;